createdAt,value
2022-11-04T00:00:10.417Z,9.20
2022-11-04T00:01:26.140Z,9.20
2022-11-04T00:02:29.366Z,9.30
2022-11-04T00:03:37.341Z,9.20
2022-11-04T00:04:43.315Z,9.20
2022-11-04T00:05:49.092Z,9.30
2022-11-04T00:06:54.911Z,9.30
2022-11-04T00:08:19.601Z,9.30
2022-11-04T00:09:31.603Z,9.30
2022-11-04T00:10:57.393Z,9.20
2022-11-04T00:12:19.029Z,9.30
2022-11-04T00:13:30.640Z,9.30
2022-11-04T00:14:38.344Z,9.30
2022-11-04T00:16:04.996Z,9.30
2022-11-04T00:17:24.694Z,9.30
2022-11-04T00:18:27.835Z,9.30
2022-11-04T00:19:53.661Z,9.30
2022-11-04T00:21:18.586Z,9.20
2022-11-04T00:22:46.090Z,9.20
2022-11-04T00:24:13.625Z,9.20
2022-11-04T00:27:01.842Z,9.20
2022-11-04T00:30:28.651Z,9.20
2022-11-04T00:32:04.044Z,9.20
2022-11-04T00:33:39.924Z,9.20
2022-11-04T00:36:32.853Z,9.20
2022-11-04T00:37:54.404Z,9.10
2022-11-04T00:39:12.521Z,9.10
2022-11-04T00:40:34.313Z,9.10
2022-11-04T00:41:52.788Z,9.10
2022-11-04T00:43:06.905Z,9.10
2022-11-04T00:44:42.685Z,9.10
2022-11-04T01:04:58.729Z,9.00
2022-11-04T01:06:26.726Z,8.90
2022-11-04T01:07:47.835Z,9.00
2022-11-04T01:09:16.947Z,9.00
2022-11-04T01:10:23.687Z,9.00
2022-11-04T01:13:28.313Z,9.20
2022-11-04T01:15:10.297Z,9.10
2022-11-04T01:16:35.281Z,9.10
2022-11-04T01:18:05.178Z,9.10
2022-11-04T01:19:25.281Z,9.10
2022-11-04T01:22:36.120Z,9.20
2022-11-04T01:23:51.351Z,9.20
2022-11-04T01:25:06.781Z,9.20
2022-11-04T01:26:27.258Z,9.20
2022-11-04T01:27:32.794Z,9.20
2022-11-04T01:29:13.572Z,9.20
2022-11-04T01:30:18.253Z,9.20
2022-11-04T01:31:46.170Z,9.20
2022-11-04T01:36:09.290Z,9.20
2022-11-04T01:37:25.038Z,9.20
2022-11-04T01:38:55.917Z,9.20
2022-11-04T01:40:13.359Z,9.30
2022-11-04T01:41:27.530Z,9.20
2022-11-04T01:42:44.571Z,9.30
2022-11-04T01:44:36.428Z,9.30
2022-11-04T01:46:16.514Z,9.30
2022-11-04T01:48:10.771Z,9.20
2022-11-04T01:49:50.268Z,9.20
2022-11-04T01:51:13.016Z,9.20
2022-11-04T01:52:48.535Z,9.20
2022-11-04T01:54:14.141Z,9.20
2022-11-04T01:55:26.512Z,9.20
2022-11-04T01:58:17.457Z,9.20
2022-11-04T01:59:37.823Z,9.20
2022-11-04T02:00:49.617Z,9.30
2022-11-04T02:01:57.477Z,9.20
2022-11-04T02:03:12.099Z,9.30
2022-11-04T02:04:38.229Z,9.30
2022-11-04T02:07:11.747Z,9.30
2022-11-04T02:08:44.635Z,9.30
2022-11-04T02:10:06.905Z,9.30
2022-11-04T02:11:46.145Z,9.30
2022-11-04T02:16:23.435Z,9.20
2022-11-04T02:18:03.465Z,9.20
2022-11-04T02:19:37.836Z,9.20
2022-11-04T02:21:18.918Z,9.20
2022-11-04T02:23:16.377Z,9.20
2022-11-04T02:26:54.122Z,9.10
2022-11-04T02:29:06.721Z,9.10
2022-11-04T02:33:04.603Z,9.10
2022-11-04T02:34:25.969Z,9.10
2022-11-04T02:35:54.474Z,9.10
2022-11-04T02:37:36.592Z,9.10
2022-11-04T02:39:21.779Z,9.10
2022-11-04T02:41:10.950Z,9.20
2022-11-04T02:42:38.163Z,9.10
2022-11-04T02:45:57.936Z,9.20
2022-11-04T02:47:42.278Z,9.20
2022-11-04T02:49:22.398Z,9.20
2022-11-04T02:52:57.698Z,9.10
2022-11-04T02:55:31.620Z,9.00
2022-11-04T02:56:58.519Z,8.90
2022-11-04T02:58:13.999Z,8.90
2022-11-04T02:59:52.462Z,9.00
2022-11-04T03:01:03.508Z,9.00
2022-11-04T03:02:30.141Z,9.10
2022-11-04T03:03:41.058Z,9.10
2022-11-04T03:04:50.209Z,9.10
2022-11-04T03:06:00.262Z,9.10
2022-11-04T03:07:08.262Z,9.10
2022-11-04T03:08:22.182Z,9.10
2022-11-04T03:09:29.047Z,9.20
2022-11-04T03:10:54.245Z,9.10
2022-11-04T03:12:05.271Z,9.10
2022-11-04T03:13:41.460Z,9.10
2022-11-04T03:14:57.883Z,9.10
2022-11-04T03:17:54.300Z,9.10
2022-11-04T03:19:45.594Z,9.00
2022-11-04T03:30:10.406Z,9.00
2022-11-04T03:31:41.902Z,9.00
2022-11-04T03:33:25.155Z,9.00
2022-11-04T03:34:51.771Z,9.00
2022-11-04T03:36:01.337Z,9.00
2022-11-04T03:37:13.457Z,9.00
2022-11-04T03:40:02.951Z,9.00
2022-11-04T03:42:58.423Z,9.10
2022-11-04T03:44:13.122Z,9.00
2022-11-04T03:45:50.272Z,9.10
2022-11-04T03:47:49.857Z,9.00
2022-11-04T03:49:10.261Z,9.00
2022-11-04T03:51:23.394Z,9.00
2022-11-04T03:54:55.987Z,9.00
2022-11-04T03:56:25.955Z,8.90
2022-11-04T03:58:10.934Z,8.90
2022-11-04T08:58:27.778Z,10.40
2022-11-04T09:02:07.776Z,10.70
2022-11-04T09:03:12.495Z,10.70
2022-11-04T09:24:00.127Z,10.90
2022-11-04T09:25:44.983Z,10.90
2022-11-04T09:27:20.025Z,11.00
2022-11-04T09:28:29.996Z,11.10
2022-11-04T09:29:37.075Z,11.20
2022-11-04T09:30:41.407Z,11.20
2022-11-04T09:31:43.395Z,11.30
2022-11-04T09:32:51.454Z,11.30
2022-11-04T09:33:57.199Z,11.30
2022-11-04T09:34:59.951Z,11.30
2022-11-04T09:36:11.433Z,11.20
2022-11-04T09:37:14.850Z,11.20
2022-11-04T09:38:16.976Z,11.20
2022-11-04T09:39:30.245Z,11.20
2022-11-04T09:40:36.404Z,11.20
2022-11-04T09:42:07.290Z,11.20
2022-11-04T09:43:46.243Z,11.20
2022-11-04T09:45:22.877Z,11.20
2022-11-04T09:46:33.980Z,11.20
2022-11-04T09:47:43.085Z,11.10
2022-11-04T09:48:57.323Z,11.10
2022-11-04T09:50:30.757Z,11.10
2022-11-04T09:52:00.005Z,11.00
2022-11-04T09:54:03.359Z,11.10
2022-11-04T09:55:37.217Z,11.10
2022-11-04T09:56:46.392Z,11.00
2022-11-04T09:58:08.176Z,11.00
2022-11-04T09:59:25.656Z,11.00
2022-11-04T10:00:38.091Z,11.00
2022-11-04T10:02:21.818Z,11.00
2022-11-04T10:03:50.477Z,11.00
2022-11-04T10:05:14.746Z,11.10
2022-11-04T10:07:11.803Z,11.10
2022-11-04T10:09:05.762Z,11.20
2022-11-04T10:10:47.276Z,11.20
2022-11-04T10:12:20.757Z,11.30
2022-11-04T10:13:48.162Z,11.30
2022-11-04T10:15:08.606Z,11.40
2022-11-04T10:16:19.963Z,11.50
2022-11-04T10:17:56.367Z,11.70
2022-11-04T10:19:24.741Z,11.90
2022-11-04T10:20:50.297Z,12.00
2022-11-04T10:22:24.741Z,12.00
2022-11-04T10:23:46.005Z,12.10
2022-11-04T10:24:56.805Z,12.10
2022-11-04T10:26:20.355Z,12.20
2022-11-04T10:27:30.252Z,12.20
2022-11-04T10:28:43.596Z,12.30
2022-11-04T10:30:16.457Z,12.40
2022-11-04T10:31:20.165Z,12.50
2022-11-04T10:32:48.553Z,12.40
2022-11-04T10:34:45.309Z,12.50
2022-11-04T10:36:10.684Z,12.50
2022-11-04T10:37:13.489Z,12.40
2022-11-04T10:38:26.430Z,12.40
2022-11-04T10:39:35.526Z,12.40
2022-11-04T10:40:43.426Z,12.40
2022-11-04T10:41:49.622Z,12.40
2022-11-04T10:42:55.062Z,12.40
2022-11-04T10:44:22.928Z,12.40
2022-11-04T10:45:35.194Z,12.30
2022-11-04T10:46:55.534Z,12.20
2022-11-04T10:48:00.536Z,12.10
2022-11-04T10:49:55.000Z,12.10
2022-11-04T10:51:14.439Z,12.10
2022-11-04T10:52:28.080Z,12.00
2022-11-04T10:53:36.587Z,11.90
2022-11-04T10:54:43.851Z,12.00
2022-11-04T10:56:21.189Z,11.90
2022-11-04T10:58:24.336Z,11.90
2022-11-04T10:59:38.826Z,11.90
2022-11-04T11:00:44.419Z,11.80
2022-11-04T11:01:56.438Z,11.80
2022-11-04T11:03:34.356Z,11.90
2022-11-04T11:04:45.778Z,11.90
2022-11-04T11:05:52.558Z,11.90
2022-11-04T11:07:13.324Z,11.80
2022-11-04T11:08:37.558Z,11.80
2022-11-04T11:10:04.284Z,11.80
2022-11-04T11:13:20.709Z,11.80
2022-11-04T11:14:35.704Z,11.70
2022-11-04T11:15:50.155Z,11.80
2022-11-04T11:18:07.166Z,11.80
2022-11-04T11:19:28.173Z,11.80
2022-11-04T11:20:38.363Z,11.90
2022-11-04T11:21:56.904Z,11.90
2022-11-04T11:23:05.072Z,12.00
2022-11-04T11:24:32.893Z,11.90
2022-11-04T11:25:39.617Z,12.00
2022-11-04T11:28:47.755Z,12.00
2022-11-04T11:33:34.572Z,11.80
2022-11-04T11:34:59.991Z,11.90
2022-11-04T11:36:30.616Z,11.90
2022-11-04T11:38:02.988Z,11.90
2022-11-04T11:43:04.863Z,11.70
2022-11-04T11:45:22.470Z,11.80
2022-11-04T11:51:22.095Z,11.60
2022-11-04T12:01:33.582Z,11.70
2022-11-04T12:03:02.043Z,11.70
2022-11-04T12:06:22.323Z,11.70
2022-11-04T12:13:26.239Z,11.60
2022-11-04T12:15:17.534Z,11.50
2022-11-04T12:18:27.734Z,11.50
2022-11-04T12:19:52.200Z,11.60
2022-11-04T12:22:16.463Z,11.60
2022-11-04T12:23:56.348Z,11.70
2022-11-04T12:25:10.929Z,11.80
2022-11-04T12:26:59.772Z,11.80
2022-11-04T12:28:59.390Z,11.80
2022-11-04T12:30:24.027Z,11.70
2022-11-04T12:32:12.214Z,11.70
2022-11-04T12:38:24.444Z,11.60
2022-11-04T12:45:02.866Z,11.60
2022-11-04T12:46:28.991Z,11.50
2022-11-04T12:54:32.998Z,11.50
2022-11-04T12:56:05.210Z,11.40
2022-11-04T12:57:31.619Z,11.50
2022-11-04T12:59:07.798Z,11.50
2022-11-04T13:00:15.335Z,11.50
2022-11-04T13:01:52.606Z,11.50
2022-11-04T13:03:05.776Z,11.50
2022-11-04T13:04:14.822Z,11.50
2022-11-04T13:05:34.480Z,11.40
2022-11-04T13:07:04.905Z,11.50
2022-11-04T13:08:33.644Z,11.50
2022-11-04T13:09:48.071Z,11.50
2022-11-04T13:10:53.771Z,11.40
2022-11-04T13:12:03.918Z,11.50
2022-11-04T13:13:08.184Z,11.50
2022-11-04T13:14:16.129Z,11.50
2022-11-04T13:15:26.823Z,11.50
2022-11-04T13:16:30.206Z,11.50
2022-11-04T13:17:43.836Z,11.40
2022-11-04T13:18:47.906Z,11.40
2022-11-04T13:19:52.959Z,11.40
2022-11-04T13:21:05.345Z,11.50
2022-11-04T13:22:16.013Z,11.50
2022-11-04T13:23:27.969Z,11.40
2022-11-04T13:24:37.920Z,11.40
2022-11-04T13:25:43.541Z,11.40
2022-11-04T13:26:45.722Z,11.40
2022-11-04T13:27:48.531Z,11.30
2022-11-04T13:29:14.267Z,11.30
2022-11-04T13:30:46.305Z,11.30
2022-11-04T13:31:54.429Z,11.30
2022-11-04T13:32:59.276Z,11.20
2022-11-04T13:34:09.872Z,11.20
2022-11-04T13:35:33.754Z,11.20
2022-11-04T13:36:54.299Z,11.20
2022-11-04T13:38:03.360Z,11.20
2022-11-04T13:39:12.561Z,11.10
2022-11-04T13:40:17.786Z,11.10
2022-11-04T13:41:25.293Z,11.00
2022-11-04T13:42:52.991Z,11.10
2022-11-04T13:44:01.607Z,11.10
2022-11-04T13:45:16.778Z,11.00
2022-11-04T13:46:28.538Z,11.10
2022-11-04T13:47:36.688Z,11.10
2022-11-04T13:49:04.048Z,11.00
2022-11-04T13:50:07.352Z,11.00
2022-11-04T13:51:12.490Z,11.00
2022-11-04T13:52:15.638Z,11.00
2022-11-04T13:53:17.428Z,11.00
2022-11-04T13:54:36.315Z,11.00
2022-11-04T13:55:49.926Z,11.00
2022-11-04T13:57:02.925Z,11.00
2022-11-04T13:58:07.039Z,11.00
2022-11-04T13:59:26.931Z,10.90
2022-11-04T14:00:33.214Z,10.90
2022-11-04T14:01:38.034Z,10.90
2022-11-04T14:02:45.905Z,10.90
2022-11-04T14:04:25.995Z,10.90
2022-11-04T14:05:27.852Z,10.90
2022-11-04T14:06:50.045Z,10.80
2022-11-04T14:08:03.568Z,10.80
2022-11-04T14:09:30.741Z,10.80
2022-11-04T14:10:38.714Z,10.80
2022-11-04T14:12:13.611Z,10.80
2022-11-04T14:13:35.017Z,10.80
2022-11-04T14:14:37.298Z,10.70
2022-11-04T14:15:57.773Z,10.70
2022-11-04T14:17:01.156Z,10.70
2022-11-04T14:18:03.584Z,10.60
2022-11-04T14:19:43.411Z,10.70
2022-11-04T14:21:10.172Z,10.60
2022-11-04T14:22:16.281Z,10.60
2022-11-04T14:23:24.878Z,10.60
2022-11-04T14:24:28.715Z,10.60
2022-11-04T14:25:38.633Z,10.60
2022-11-04T14:26:48.523Z,10.70
2022-11-04T14:27:53.320Z,10.60
2022-11-04T14:29:25.770Z,10.60
2022-11-04T14:30:48.028Z,10.60
2022-11-04T14:31:52.609Z,10.60
2022-11-04T14:33:01.651Z,10.60
2022-11-04T14:34:05.837Z,10.60
2022-11-04T14:35:16.848Z,10.60
2022-11-04T14:36:21.484Z,10.60
2022-11-04T14:37:28.948Z,10.60
2022-11-04T14:38:34.084Z,10.50
2022-11-04T14:39:40.791Z,10.50
2022-11-04T14:41:13.687Z,10.50
2022-11-04T14:42:41.369Z,10.50
2022-11-04T14:43:46.170Z,10.40
2022-11-04T14:44:50.602Z,10.40
2022-11-04T14:45:55.454Z,10.40
2022-11-04T14:47:07.681Z,10.30
2022-11-04T14:48:18.510Z,10.40
2022-11-04T14:49:32.324Z,10.40
2022-11-04T14:50:34.646Z,10.40
2022-11-04T14:51:41.289Z,10.30
2022-11-04T14:52:43.481Z,10.30
2022-11-04T14:53:45.655Z,10.30
2022-11-04T14:54:50.161Z,10.30
2022-11-04T14:56:31.387Z,10.40
2022-11-04T14:57:41.916Z,10.30
2022-11-04T14:58:59.862Z,10.30
2022-11-04T15:00:22.298Z,10.30
2022-11-04T15:01:32.938Z,10.20
2022-11-04T15:02:36.566Z,10.20
2022-11-04T15:04:11.673Z,10.30
2022-11-04T15:05:03.183Z,10.30
2022-11-04T15:06:07.407Z,10.20
2022-11-04T15:07:25.279Z,10.30
2022-11-04T15:08:30.117Z,10.30
2022-11-04T15:09:35.257Z,10.20
2022-11-04T15:10:37.308Z,10.20
2022-11-04T15:11:59.132Z,10.20
2022-11-04T15:13:02.298Z,10.20
2022-11-04T15:14:17.177Z,10.20
2022-11-04T15:15:32.868Z,10.20
2022-11-04T15:16:35.881Z,10.20
2022-11-04T15:17:37.869Z,10.20
2022-11-04T15:18:42.690Z,10.20
2022-11-04T15:19:52.327Z,10.20
2022-11-04T15:21:02.533Z,10.20
2022-11-04T15:22:07.209Z,10.20
2022-11-04T15:23:15.557Z,10.20
2022-11-04T15:24:18.060Z,10.20
2022-11-04T15:25:20.158Z,10.20
2022-11-04T15:26:29.748Z,10.20
2022-11-04T15:27:34.433Z,10.20
2022-11-04T15:28:46.673Z,10.10
2022-11-04T15:30:02.591Z,10.10
2022-11-04T15:31:15.296Z,10.10
2022-11-04T15:32:17.619Z,10.10
2022-11-04T15:33:19.691Z,10.10
2022-11-04T15:34:22.382Z,10.00
2022-11-04T15:35:25.631Z,10.10
2022-11-04T15:36:42.911Z,10.10
2022-11-04T15:37:49.542Z,10.10
2022-11-04T15:39:08.437Z,10.00
2022-11-04T15:40:15.122Z,10.00
2022-11-04T15:41:38.868Z,10.00
2022-11-04T15:42:44.771Z,10.00
2022-11-04T15:43:46.831Z,9.90
2022-11-04T15:44:56.885Z,9.90
2022-11-04T15:45:58.845Z,9.90
2022-11-04T15:47:04.264Z,9.90
2022-11-04T15:48:30.169Z,9.80
2022-11-04T15:49:35.359Z,9.80
2022-11-04T15:50:38.761Z,9.80
2022-11-04T15:51:41.951Z,9.70
2022-11-04T15:52:54.387Z,9.70
2022-11-04T15:54:17.454Z,9.70
2022-11-04T15:55:26.041Z,9.70
2022-11-04T15:56:32.599Z,9.70
2022-11-04T15:57:38.444Z,9.70
2022-11-04T15:58:42.982Z,9.70
2022-11-04T16:00:15.525Z,9.60
2022-11-04T16:01:19.602Z,9.70
2022-11-04T16:02:32.532Z,9.60
2022-11-04T16:03:34.646Z,9.60
2022-11-04T16:04:37.325Z,9.60
2022-11-04T16:05:40.520Z,9.60
2022-11-04T16:07:01.970Z,9.60
2022-11-04T16:08:20.402Z,9.60
2022-11-04T16:09:40.621Z,9.50
2022-11-04T16:10:43.669Z,9.40
2022-11-04T16:12:27.123Z,9.40
2022-11-04T16:13:29.714Z,9.40
2022-11-04T16:14:32.000Z,9.40
2022-11-04T16:15:39.997Z,9.40
2022-11-04T16:16:49.948Z,9.40
2022-11-04T16:17:53.530Z,9.50
2022-11-04T16:18:57.799Z,9.50
2022-11-04T16:20:07.778Z,9.50
2022-11-04T16:21:22.683Z,9.50
2022-11-04T16:22:39.077Z,9.50
2022-11-04T16:23:47.736Z,9.50
2022-11-04T16:24:52.598Z,9.50
2022-11-04T16:26:06.723Z,9.50
2022-11-04T16:27:11.378Z,9.50
2022-11-04T16:28:36.764Z,9.50
2022-11-04T16:29:48.033Z,9.50
2022-11-04T16:31:22.044Z,9.50
2022-11-04T16:32:31.168Z,9.50
2022-11-04T16:33:33.148Z,9.50
2022-11-04T16:34:36.179Z,9.50
2022-11-04T16:35:42.897Z,9.50
2022-11-04T16:36:44.919Z,9.50
2022-11-04T16:37:47.214Z,9.60
2022-11-04T16:39:00.380Z,9.50
2022-11-04T16:40:05.214Z,9.60
2022-11-04T16:41:09.028Z,9.60
2022-11-04T16:42:14.658Z,9.60
2022-11-04T16:43:21.381Z,9.60
2022-11-04T16:44:24.123Z,9.60
2022-11-04T16:45:27.404Z,9.60
2022-11-04T16:46:29.314Z,9.70
2022-11-04T16:47:36.167Z,9.70
2022-11-04T16:48:55.808Z,9.60
2022-11-04T16:50:24.809Z,9.60
2022-11-04T16:51:30.669Z,9.70
2022-11-04T16:52:47.062Z,9.60
2022-11-04T16:57:05.584Z,9.70
2022-11-04T16:58:25.293Z,9.70
2022-11-04T17:01:05.452Z,9.70
2022-11-04T17:02:47.716Z,9.60
2022-11-04T17:04:19.027Z,9.70
2022-11-04T17:05:27.372Z,9.60
2022-11-04T17:06:40.509Z,9.60
2022-11-04T17:07:54.264Z,9.60
2022-11-04T17:09:01.571Z,9.60
2022-11-04T17:10:20.131Z,9.60
2022-11-04T17:11:22.510Z,9.60
2022-11-04T17:12:24.535Z,9.50
2022-11-04T17:13:27.633Z,9.50
2022-11-04T17:14:37.987Z,9.50
2022-11-04T17:15:41.604Z,9.40
2022-11-04T17:16:45.652Z,9.40
2022-11-04T17:17:47.580Z,9.40
2022-11-04T17:18:50.536Z,9.40
2022-11-04T17:20:04.618Z,9.30
2022-11-04T17:21:36.448Z,9.30
2022-11-04T17:22:38.679Z,9.20
2022-11-04T17:23:42.120Z,9.10
2022-11-04T17:24:45.012Z,9.10
2022-11-04T17:25:54.104Z,9.00
2022-11-04T17:26:57.669Z,9.00
2022-11-04T17:28:01.661Z,9.00
2022-11-04T17:29:05.223Z,8.90
2022-11-04T17:30:09.136Z,8.90
2022-11-04T17:31:18.884Z,8.80
2022-11-04T17:32:21.574Z,8.80
2022-11-04T17:33:24.187Z,8.80
2022-11-04T17:35:00.659Z,8.80
2022-11-04T17:36:07.665Z,8.70
2022-11-04T17:37:16.027Z,8.60
2022-11-04T17:38:19.931Z,8.60
2022-11-04T17:39:21.906Z,8.60
2022-11-04T17:40:25.918Z,8.60
2022-11-04T17:41:47.740Z,8.60
2022-11-04T17:43:12.380Z,8.60
2022-11-04T17:44:14.601Z,8.50
2022-11-04T17:45:16.798Z,8.50
2022-11-04T17:46:36.808Z,8.40
2022-11-04T17:47:40.619Z,8.40
2022-11-04T17:48:42.881Z,8.40
2022-11-04T17:49:44.992Z,8.30
2022-11-04T17:50:48.415Z,8.30
2022-11-04T17:51:56.208Z,8.30
2022-11-04T17:52:58.614Z,8.30
2022-11-04T17:54:01.076Z,8.30
2022-11-04T17:55:05.358Z,8.30
2022-11-04T17:56:15.271Z,8.30
2022-11-04T17:57:17.688Z,8.30
2022-11-04T17:58:20.470Z,8.20
2022-11-04T17:59:25.028Z,8.20
2022-11-04T18:00:29.896Z,8.20
2022-11-04T18:01:36.367Z,8.20
2022-11-04T18:02:39.091Z,8.20
2022-11-04T18:03:45.135Z,8.20
2022-11-04T18:04:49.411Z,8.20
2022-11-04T18:06:03.446Z,8.20
2022-11-04T18:07:05.777Z,8.20
2022-11-04T18:08:07.860Z,8.20
2022-11-04T18:09:13.059Z,8.10
2022-11-04T18:10:19.347Z,8.20
2022-11-04T18:11:48.761Z,8.20
2022-11-04T18:12:56.572Z,8.20
2022-11-04T18:14:04.355Z,8.20
2022-11-04T18:15:20.213Z,8.20
2022-11-04T18:16:23.499Z,8.20
2022-11-04T18:17:26.866Z,8.10
2022-11-04T18:18:28.834Z,8.10
2022-11-04T18:19:32.673Z,8.10
2022-11-04T18:20:36.335Z,8.10
2022-11-04T18:21:38.856Z,8.10
2022-11-04T18:22:43.101Z,8.10
2022-11-04T18:23:48.784Z,8.10
2022-11-04T18:24:56.203Z,8.10
2022-11-04T18:25:59.551Z,8.00
2022-11-04T18:27:02.323Z,8.10
2022-11-04T18:28:05.762Z,8.00
2022-11-04T18:29:09.008Z,8.00
2022-11-04T18:30:15.024Z,8.00
2022-11-04T18:31:29.544Z,7.90
2022-11-04T18:32:33.194Z,7.90
2022-11-04T18:33:36.497Z,7.90
2022-11-04T18:34:48.813Z,7.80
2022-11-04T18:36:01.342Z,7.80
2022-11-04T18:37:04.069Z,7.80
2022-11-04T18:38:07.621Z,7.70
2022-11-04T18:39:15.478Z,7.80
2022-11-04T18:40:20.450Z,7.70
2022-11-04T18:41:25.111Z,7.70
2022-11-04T18:42:27.542Z,7.60
2022-11-04T18:43:30.092Z,7.60
2022-11-04T18:44:32.155Z,7.60
2022-11-04T18:45:34.501Z,7.60
2022-11-04T18:46:36.941Z,7.60
2022-11-04T18:47:39.738Z,7.60
2022-11-04T18:48:43.969Z,7.60
2022-11-04T18:49:47.473Z,7.60
2022-11-04T18:50:52.060Z,7.60
2022-11-04T18:51:54.394Z,7.50
2022-11-04T18:52:58.432Z,7.50
2022-11-04T18:54:05.080Z,7.50
2022-11-04T18:55:08.530Z,7.50
2022-11-04T18:56:15.920Z,7.50
2022-11-04T18:57:20.230Z,7.40
2022-11-04T18:58:26.690Z,7.40
2022-11-04T18:59:32.829Z,7.40
2022-11-04T19:00:40.404Z,7.40
2022-11-04T19:01:46.633Z,7.40
2022-11-04T19:02:50.747Z,7.40
2022-11-04T19:04:02.626Z,7.30
2022-11-04T19:05:08.739Z,7.30
2022-11-04T19:06:15.377Z,7.30
2022-11-04T19:07:17.854Z,7.30
2022-11-04T19:08:21.004Z,7.20
2022-11-04T19:11:00.707Z,7.20
2022-11-04T19:12:28.202Z,7.20
2022-11-04T19:13:31.290Z,7.20
2022-11-04T19:14:40.560Z,7.20
2022-11-04T19:15:50.681Z,7.20
2022-11-04T19:16:53.775Z,7.10
2022-11-04T19:17:58.692Z,7.10
2022-11-04T19:19:06.705Z,7.10
2022-11-04T19:20:12.612Z,7.10
2022-11-04T19:21:24.231Z,7.10
2022-11-04T19:22:32.008Z,7.10
2022-11-04T19:23:35.879Z,7.10
2022-11-04T19:24:38.745Z,7.10
2022-11-04T19:25:41.958Z,7.10
2022-11-04T19:26:45.167Z,7.10
2022-11-04T19:28:05.159Z,7.10
2022-11-04T19:29:11.701Z,7.00
2022-11-04T19:30:13.759Z,7.00
2022-11-04T19:31:23.273Z,7.00
2022-11-04T19:32:29.638Z,7.00
2022-11-04T19:33:33.169Z,7.00
2022-11-04T19:34:37.665Z,7.00
2022-11-04T19:35:42.215Z,7.00
2022-11-04T19:36:46.329Z,7.00
2022-11-04T19:37:48.460Z,7.00
2022-11-04T19:38:55.181Z,7.00
2022-11-04T19:39:58.429Z,7.00
2022-11-04T19:41:28.805Z,7.00
2022-11-04T19:42:49.136Z,7.00
2022-11-04T19:43:53.277Z,6.90
2022-11-04T19:44:57.537Z,6.80
2022-11-04T19:46:18.245Z,6.80
2022-11-04T19:47:22.097Z,6.80
2022-11-04T19:48:24.268Z,6.80
2022-11-04T19:49:31.260Z,6.80
2022-11-04T19:50:33.421Z,6.80
2022-11-04T19:51:36.355Z,6.80
2022-11-04T19:52:38.570Z,6.80
2022-11-04T19:53:42.095Z,6.80
2022-11-04T19:54:45.041Z,6.80
2022-11-04T19:55:52.336Z,6.80
2022-11-04T19:56:55.220Z,6.80
2022-11-04T19:57:57.603Z,6.80
2022-11-04T19:59:05.719Z,6.80
2022-11-04T20:00:09.215Z,6.80
2022-11-04T20:01:13.570Z,6.80
2022-11-04T20:02:16.630Z,6.80
2022-11-04T20:03:22.721Z,6.80
2022-11-04T20:04:35.275Z,6.70
2022-11-04T20:05:45.815Z,6.70
2022-11-04T20:06:50.861Z,6.70
2022-11-04T20:07:55.127Z,6.70
2022-11-04T20:08:57.266Z,6.70
2022-11-04T20:10:00.634Z,6.70
2022-11-04T20:11:04.476Z,6.70
2022-11-04T20:12:25.330Z,6.70
2022-11-04T20:13:47.838Z,6.70
2022-11-04T20:14:52.361Z,6.60
2022-11-04T20:16:00.166Z,6.60
2022-11-04T20:17:05.646Z,6.60
2022-11-04T20:18:12.132Z,6.60
2022-11-04T20:19:19.963Z,6.60
2022-11-04T20:20:25.072Z,6.60
2022-11-04T20:21:37.720Z,6.50
2022-11-04T20:22:41.709Z,6.50
2022-11-04T20:23:44.749Z,6.50
2022-11-04T20:24:48.945Z,6.50
2022-11-04T20:25:52.755Z,6.50
2022-11-04T20:26:59.430Z,6.60
2022-11-04T20:28:11.328Z,6.60
2022-11-04T20:29:16.608Z,6.60
2022-11-04T20:30:22.876Z,6.50
2022-11-04T20:31:37.976Z,6.50
2022-11-04T20:32:41.185Z,6.50
2022-11-04T20:33:43.901Z,6.50
2022-11-04T20:34:48.058Z,6.50
2022-11-04T20:35:54.011Z,6.50
2022-11-04T20:36:57.824Z,6.50
2022-11-04T20:38:00.651Z,6.50
2022-11-04T20:39:13.500Z,6.50
2022-11-04T20:40:21.173Z,6.50
2022-11-04T20:41:27.108Z,6.40
2022-11-04T20:42:30.953Z,6.50
2022-11-04T20:43:36.357Z,6.50
2022-11-04T20:44:42.787Z,6.50
2022-11-04T20:45:52.066Z,6.40
2022-11-04T20:47:01.490Z,6.50
2022-11-04T20:48:04.474Z,6.40
2022-11-04T20:49:08.208Z,6.40
2022-11-04T20:50:13.507Z,6.50
2022-11-04T20:51:19.159Z,6.40
2022-11-04T20:52:21.924Z,6.40
2022-11-04T20:53:25.071Z,6.40
2022-11-04T20:54:27.246Z,6.40
2022-11-04T20:55:30.320Z,6.40
2022-11-04T20:56:36.967Z,6.40
2022-11-04T20:57:39.502Z,6.40
2022-11-04T20:58:44.024Z,6.40
2022-11-04T20:59:46.337Z,6.40
2022-11-04T21:00:48.677Z,6.40
2022-11-04T21:01:52.304Z,6.40
2022-11-04T21:02:55.312Z,6.40
2022-11-04T21:04:01.036Z,6.40
2022-11-04T21:05:03.441Z,6.40
2022-11-04T21:06:08.263Z,6.40
2022-11-04T21:07:10.951Z,6.40
2022-11-04T21:08:21.288Z,6.40
2022-11-04T21:09:32.293Z,6.40
2022-11-04T21:10:45.283Z,6.40
2022-11-04T21:11:50.360Z,6.30
2022-11-04T21:12:54.270Z,6.30
2022-11-04T21:13:59.196Z,6.40
2022-11-04T21:15:01.274Z,6.30
2022-11-04T21:16:04.352Z,6.40
2022-11-04T21:17:18.386Z,6.30
2022-11-04T21:18:22.184Z,6.40
2022-11-04T21:19:25.578Z,6.30
2022-11-04T21:20:28.231Z,6.30
2022-11-04T21:21:32.781Z,6.40
2022-11-04T21:22:37.245Z,6.30
2022-11-04T21:23:39.832Z,6.30
2022-11-04T21:24:41.884Z,6.30
2022-11-04T21:25:56.146Z,6.40
2022-11-04T21:26:59.170Z,6.40
2022-11-04T21:28:01.479Z,6.30
2022-11-04T21:29:08.086Z,6.30
2022-11-04T21:30:14.488Z,6.30
2022-11-04T21:31:18.897Z,6.30
2022-11-04T21:32:24.572Z,6.30
2022-11-04T21:33:26.957Z,6.30
2022-11-04T21:34:29.774Z,6.30
2022-11-04T21:37:01.117Z,6.30
2022-11-04T21:40:02.060Z,6.30
2022-11-04T21:41:19.337Z,6.20
2022-11-04T21:42:41.066Z,6.20
2022-11-04T21:43:48.487Z,6.20
2022-11-04T21:44:57.379Z,6.20
2022-11-04T21:46:12.387Z,6.20
2022-11-04T21:47:21.908Z,6.20
2022-11-04T21:48:25.131Z,6.20
2022-11-04T21:49:51.579Z,6.20
2022-11-04T21:50:54.551Z,6.20
2022-11-04T21:51:58.477Z,6.20
2022-11-04T21:53:02.533Z,6.20
2022-11-04T21:54:07.536Z,6.20
2022-11-04T21:55:19.489Z,6.20
2022-11-04T21:56:36.574Z,6.10
2022-11-04T21:57:43.152Z,6.20
2022-11-04T21:58:50.307Z,6.10
2022-11-04T21:59:54.690Z,6.10
2022-11-04T22:01:02.963Z,6.10
2022-11-04T22:02:10.456Z,6.20
2022-11-04T22:03:18.596Z,6.20
2022-11-04T22:04:24.647Z,6.20
2022-11-04T22:05:33.742Z,6.20
2022-11-04T22:06:43.558Z,6.20
2022-11-04T22:08:14.454Z,6.20
2022-11-04T22:09:25.072Z,6.20
2022-11-04T22:10:41.682Z,6.20
2022-11-04T22:12:02.009Z,6.10
2022-11-04T22:13:17.291Z,6.20
2022-11-04T22:14:27.490Z,6.10
2022-11-04T22:16:05.129Z,6.20
2022-11-04T22:18:53.723Z,6.10
2022-11-04T22:20:12.692Z,6.10
2022-11-04T22:23:32.028Z,6.10
2022-11-04T22:24:44.027Z,6.00
2022-11-04T22:28:07.608Z,6.00
2022-11-04T22:29:37.359Z,5.90
2022-11-04T22:32:21.576Z,5.90
2022-11-04T22:33:45.626Z,5.90
2022-11-04T22:35:59.772Z,5.90
2022-11-04T22:37:05.580Z,6.00
2022-11-04T22:38:24.120Z,6.00
2022-11-04T22:41:26.323Z,6.00
2022-11-04T22:45:34.743Z,5.90
2022-11-04T22:46:53.545Z,5.90
2022-11-04T22:49:36.423Z,5.90
2022-11-04T22:50:49.013Z,5.90
2022-11-04T22:52:10.159Z,5.90
2022-11-04T22:54:31.285Z,5.90
2022-11-04T22:55:38.532Z,5.90
2022-11-04T22:56:51.996Z,5.90
2022-11-04T22:57:57.880Z,6.00
2022-11-04T22:59:02.959Z,6.00
2022-11-04T23:00:06.562Z,5.90
2022-11-04T23:01:14.260Z,6.00
2022-11-04T23:02:23.048Z,6.00
2022-11-04T23:03:30.876Z,6.00
2022-11-04T23:04:35.675Z,6.00
2022-11-04T23:05:38.984Z,6.00
2022-11-04T23:06:44.890Z,6.00
2022-11-04T23:07:50.751Z,6.00
2022-11-04T23:09:00.927Z,6.00
2022-11-04T23:10:22.692Z,6.00
2022-11-04T23:11:48.697Z,6.00
2022-11-04T23:13:10.293Z,6.00
2022-11-04T23:14:34.492Z,6.00
2022-11-04T23:15:58.893Z,6.00
2022-11-04T23:17:23.720Z,6.00
2022-11-04T23:18:43.044Z,6.00
2022-11-04T23:19:46.959Z,6.00
2022-11-04T23:21:09.079Z,6.00
2022-11-04T23:22:43.187Z,6.00
2022-11-04T23:24:13.313Z,6.10
2022-11-04T23:25:22.322Z,6.10
2022-11-04T23:26:28.379Z,6.10
2022-11-04T23:28:12.412Z,6.20
2022-11-04T23:31:08.194Z,6.20
2022-11-04T23:32:29.165Z,6.20
2022-11-04T23:34:07.524Z,6.20
2022-11-04T23:36:55.566Z,6.20
2022-11-04T23:38:11.780Z,6.20
2022-11-04T23:39:14.903Z,6.20
2022-11-04T23:40:19.556Z,6.20
2022-11-04T23:41:43.209Z,6.20
2022-11-04T23:42:58.643Z,6.20
2022-11-04T23:45:44.815Z,6.20
2022-11-04T23:48:50.561Z,6.30
2022-11-04T23:50:15.778Z,6.10
2022-11-04T23:51:47.972Z,6.20
2022-11-04T23:53:13.004Z,6.30
2022-11-04T23:54:40.842Z,6.30
2022-11-04T23:56:08.874Z,6.30
2022-11-04T23:57:44.538Z,6.30
2022-11-04T23:59:07.114Z,6.30
